Harlingen, Netherlands
Current Conditions -  °F | °C
As of 6:25 PM on Thursday 27 Nov 2014 (Local Time) from EHLW Reporting Station
Unknown Precip Unknown Precip  
Wind Chill: 35°   Ceiling: 900
Heat Index: 41°   Visibility: 3mi
Dew Point: 39°   Wind: 10mph
Humidity: 93%   Direction: 120°ESE
Pressure: 29.77"   Gusts: NA
Location:  53.17°N, 5.42°E
Report Text: EHLW 271725Z AUTO 12009KT 5000 -UP OVC009 05/04 Q1008 GRN 10010KT 5000 BR BKN017 TEMPO FEW007 SCT009 BKN050
Loading
Personal Weather Stations






























Interactive Weather Map New forecast layout! Learn more

10-Day Weather Forecast

Advertisements
Track Severe Weather on mobile